Pitlochry, United Kingdom
Current Conditions -  °F | °C
As of 8:20 PM on Tuesday 21 Oct 2014 (Local Time) from EGPN Reporting Station
Few Clouds Few Clouds  
Wind Chill: 36°   Ceiling: Unl
Heat Index: 45°   Visibility: 6mi
Dew Point: 37°   Wind: 21mph
Humidity: 76%   Direction: 250°WSW
Pressure: 29.8"   Gusts: NA
Location:  56.71°N, 3.73°W
Report Text: EGPN 211920Z 25018KT 9999 FEW035 07/03 Q1009
Loading
Personal Weather Stations






























Interactive Weather Map
Tropical Storm Tracking
New forecast layout! Learn more

10-Day Weather Forecast

Advertisements
Track Severe Weather on mobile